Time;durP1;ratioP1;P1;durP2;ratioP2;P2;SDS_P1;SDS_P2;PMS_P1;PMS_P2;Temp;Humidity;BMP_temperature;BMP_pressure;BME280_temperature;BME280_humidity;BME280_pressure;Samples;Min_cycle;Max_cycle;Signal;HPM_P1;HPM_P2
2023/03/09 00:01:38;;;;;;;15.10;4.83;;;;;;;2.45;100.00;98918.94;5094513;28;20432;-67
2023/03/09 00:04:05;;;;;;;15.30;6.13;;;;;;;2.41;100.00;98924.06;5094097;28;20440;-66
2023/03/09 00:06:32;;;;;;;13.17;4.83;;;;;;;2.36;100.00;98923.34;5094060;28;20441;-66
2023/03/09 00:08:59;;;;;;;14.23;5.57;;;;;;;2.40;100.00;98935.06;5094265;28;20874;-63
2023/03/09 00:11:25;;;;;;;17.27;6.63;;;;;;;2.34;100.00;98925.50;5094307;28;20792;-66
2023/03/09 00:13:53;;;;;;;13.80;5.23;;;;;;;2.32;100.00;98922.31;5094385;28;20448;-67
2023/03/09 00:16:23;;;;;;;17.63;5.97;;;;;;;2.35;100.00;98924.44;5094250;28;20476;-66
2023/03/09 00:18:52;;;;;;;12.07;5.20;;;;;;;2.37;100.00;98932.94;5093879;28;20991;-67
2023/03/09 00:21:34;;;;;;;13.50;6.70;;;;;;;2.27;100.00;98923.97;5092959;28;20435;-66
2023/03/09 00:24:01;;;;;;;22.50;6.33;;;;;;;2.35;100.00;98935.13;5093791;28;20429;-66
2023/03/09 00:26:28;;;;;;;15.40;6.60;;;;;;;2.37;100.00;98930.28;5094050;28;20482;-66
2023/03/09 00:28:56;;;;;;;14.80;6.60;;;;;;;2.33;100.00;98929.25;5093793;28;20570;-67
2023/03/09 00:31:23;;;;;;;17.07;6.97;;;;;;;2.35;100.00;98927.09;5093966;28;20484;-67
2023/03/09 00:33:50;;;;;;;17.03;6.37;;;;;;;2.31;100.00;98931.44;5093832;28;20523;-66
2023/03/09 00:36:17;;;;;;;14.63;5.63;;;;;;;2.31;100.00;98923.41;5093804;28;20474;-66
2023/03/09 00:38:44;;;;;;;23.70;7.23;;;;;;;2.30;100.00;98924.47;5093714;28;20453;-67
2023/03/09 00:41:11;;;;;;;20.80;6.80;;;;;;;2.37;100.00;98930.28;5093831;28;20532;-66
2023/03/09 00:43:37;;;;;;;19.30;7.30;;;;;;;2.39;100.00;98930.75;5093702;28;20440;-67
2023/03/09 00:46:05;;;;;;;17.90;8.13;;;;;;;2.43;100.00;98926.44;5093769;28;20447;-66
2023/03/09 00:48:32;;;;;;;20.00;7.50;;;;;;;2.40;100.00;98919.03;5092990;28;20566;-67
2023/03/09 00:50:58;;;;;;;28.03;9.37;;;;;;;2.31;100.00;98918.06;5093737;28;20806;-67
2023/03/09 00:53:25;;;;;;;18.13;7.37;;;;;;;2.33;100.00;98916.69;5093223;28;20486;-67
2023/03/09 00:55:52;;;;;;;19.47;7.87;;;;;;;2.31;100.00;98918.06;5093555;28;20476;-67
2023/03/09 00:58:18;;;;;;;23.90;9.40;;;;;;;2.36;100.00;98923.34;5093148;28;20492;-66
2023/03/09 01:00:45;;;;;;;19.13;7.07;;;;;;;2.40;100.00;98919.03;5093502;28;20468;-66
2023/03/09 01:03:13;;;;;;;20.67;8.03;;;;;;;2.47;100.00;98914.88;5093468;28;20440;-67
2023/03/09 01:05:39;;;;;;;25.10;9.23;;;;;;;2.46;100.00;98904.50;5093343;28;20436;-68
2023/03/09 01:08:06;;;;;;;17.47;7.37;;;;;;;2.38;100.00;98899.78;5092885;28;20462;-67
2023/03/09 01:10:33;;;;;;;16.63;7.13;;;;;;;2.42;100.00;98903.47;5093256;28;20847;-68
2023/03/09 01:12:59;;;;;;;15.47;6.33;;;;;;;2.42;100.00;98898.13;5093303;28;20541;-66
2023/03/09 01:15:26;;;;;;;24.23;9.67;;;;;;;2.45;100.00;98894.91;5093277;28;20446;-67
2023/03/09 01:17:52;;;;;;;18.33;7.77;;;;;;;2.39;100.00;98901.38;5092741;28;20989;-67
2023/03/09 01:20:20;;;;;;;23.80;9.00;;;;;;;2.38;100.00;98894.44;5093171;28;20446;-67
2023/03/09 01:22:48;;;;;;;21.80;8.40;;;;;;;2.27;100.00;98894.59;5092875;28;20956;-67
2023/03/09 01:25:14;;;;;;;20.60;9.10;;;;;;;2.23;100.00;98896.25;5092878;28;20497;-66
2023/03/09 01:27:41;;;;;;;23.00;7.93;;;;;;;2.23;100.00;98885.56;5092946;28;20961;-68
2023/03/09 01:30:09;;;;;;;17.57;8.10;;;;;;;2.30;100.00;98889.75;5093122;28;20511;-66
2023/03/09 01:32:35;;;;;;;16.07;7.70;;;;;;;2.32;100.00;98884.94;5094179;28;20443;-68
2023/03/09 01:35:03;;;;;;;17.20;6.77;;;;;;;2.28;100.00;98880.16;5097585;28;20535;-67
2023/03/09 01:37:31;;;;;;;19.30;8.23;;;;;;;2.32;100.00;98885.72;5097294;28;20567;-67
2023/03/09 01:39:57;;;;;;;20.27;8.93;;;;;;;2.35;100.00;98879.03;5097238;28;20516;-66
2023/03/09 01:42:24;;;;;;;20.73;9.13;;;;;;;2.31;100.00;98878.81;5096935;28;20956;-67
2023/03/09 01:45:32;;;;;;;26.83;9.13;;;;;;;2.33;100.00;98884.63;5096850;28;20464;-66
2023/03/09 01:48:00;;;;;;;17.87;7.87;;;;;;;2.33;100.00;98876.63;5096478;28;20563;-67
2023/03/09 01:50:30;;;;;;;19.27;7.93;;;;;;;2.32;100.00;98883.06;5096951;28;20480;-67
2023/03/09 01:53:04;;;;;;;21.70;8.90;;;;;;;2.25;100.00;98886.06;5096765;28;20935;-67
2023/03/09 01:55:35;;;;;;;22.33;8.33;;;;;;;2.27;100.00;98872.44;5096999;28;20433;-67
2023/03/09 01:58:05;;;;;;;23.70;8.53;;;;;;;2.30;100.00;98863.84;5096890;28;20559;-67
2023/03/09 02:00:33;;;;;;;19.60;8.30;;;;;;;2.31;100.00;98872.66;5096594;28;20447;-67
2023/03/09 02:03:03;;;;;;;22.70;8.27;;;;;;;2.23;100.00;98877.56;5096805;28;20524;-67
2023/03/09 02:05:34;;;;;;;24.80;9.50;;;;;;;2.10;100.00;98870.25;5096860;28;20428;-67
2023/03/09 02:08:03;;;;;;;24.50;8.90;;;;;;;2.08;100.00;98867.09;5096481;28;20467;-67
2023/03/09 02:10:33;;;;;;;21.20;8.27;;;;;;;2.12;100.00;98864.63;5096606;28;20506;-66
2023/03/09 02:13:04;;;;;;;18.57;8.40;;;;;;;2.08;100.00;98868.94;5096592;28;20952;-67
2023/03/09 02:15:30;;;;;;;18.17;7.67;;;;;;;2.06;100.00;98866.56;5096682;28;20504;-67
2023/03/09 02:17:57;;;;;;;20.93;8.70;;;;;;;2.00;100.00;98870.41;5096461;28;20539;-67
2023/03/09 02:20:32;;;;;;;32.07;8.77;;;;;;;2.03;100.00;98862.59;5096544;28;20436;-66
2023/03/09 02:22:59;;;;;;;21.00;8.30;;;;;;;2.04;100.00;98863.41;5096500;28;20432;-67
2023/03/09 02:25:35;;;;;;;22.17;8.37;;;;;;;2.06;100.00;98855.09;5096097;28;20945;-66
2023/03/09 02:28:04;;;;;;;21.93;9.17;;;;;;;2.11;100.00;98852.34;5096316;28;20468;-67
2023/03/09 02:30:35;;;;;;;19.30;8.40;;;;;;;2.08;100.00;98851.06;5096214;28;20491;-67
2023/03/09 02:33:07;;;;;;;26.47;7.77;;;;;;;2.09;100.00;98849.97;5096389;28;20424;-67
2023/03/09 02:35:34;;;;;;;16.93;7.80;;;;;;;2.12;100.00;98851.28;5096345;28;20515;-68
2023/03/09 02:38:00;;;;;;;16.97;8.50;;;;;;;2.15;100.00;98843.47;5096095;28;20467;-68
2023/03/09 02:40:31;;;;;;;21.90;8.20;;;;;;;2.12;100.00;98840.59;5096122;28;20495;-67
2023/03/09 02:42:58;;;;;;;22.57;7.57;;;;;;;2.01;100.00;98837.28;5095695;28;20489;-67
2023/03/09 02:45:28;;;;;;;25.70;9.77;;;;;;;2.00;100.00;98835.69;5094867;28;20475;-68
2023/03/09 02:47:55;;;;;;;21.50;8.50;;;;;;;2.01;100.00;98834.59;5095627;28;20472;-67
2023/03/09 02:50:22;;;;;;;22.23;9.17;;;;;;;2.00;100.00;98825.00;5095822;28;20475;-67
2023/03/09 02:52:48;;;;;;;19.33;8.00;;;;;;;1.98;100.00;98821.81;5095843;28;20483;-66
2023/03/09 02:55:15;;;;;;;21.90;9.27;;;;;;;1.97;100.00;98828.25;5095437;28;20440;-67
2023/03/09 02:57:42;;;;;;;20.70;8.70;;;;;;;1.93;100.00;98832.56;5095746;28;20460;-66
2023/03/09 03:00:11;;;;;;;18.83;9.03;;;;;;;1.84;100.00;98826.28;5095757;28;20447;-67
2023/03/09 03:02:39;;;;;;;20.00;8.73;;;;;;;1.82;100.00;98828.47;5095496;28;20439;-68
2023/03/09 03:05:08;;;;;;;25.30;8.67;;;;;;;1.83;100.00;98830.03;5095653;28;20436;-67
2023/03/09 03:07:34;;;;;;;27.17;10.40;;;;;;;1.83;100.00;98830.84;5095545;28;20496;-69
2023/03/09 03:10:01;;;;;;;17.70;8.03;;;;;;;1.82;100.00;98831.13;5095535;28;20476;-67
2023/03/09 03:12:27;;;;;;;19.83;8.27;;;;;;;1.83;100.00;98832.72;5095174;28;20452;-67
2023/03/09 03:14:54;;;;;;;26.37;9.40;;;;;;;1.83;100.00;98830.03;5095473;28;20487;-67
2023/03/09 03:17:21;;;;;;;17.67;7.40;;;;;;;1.76;100.00;98823.16;5095340;28;20451;-68
2023/03/09 03:19:49;;;;;;;23.17;9.43;;;;;;;1.74;100.00;98820.00;5095441;28;20436;-68
2023/03/09 03:22:15;;;;;;;21.87;9.23;;;;;;;1.73;100.00;98821.09;5095420;28;20472;-67
2023/03/09 03:24:42;;;;;;;24.90;8.30;;;;;;;1.73;100.00;98821.09;5095311;28;20487;-67
2023/03/09 03:27:09;;;;;;;24.40;9.60;;;;;;;1.76;100.00;98819.69;5094943;28;20953;-66
2023/03/09 03:29:35;;;;;;;24.23;8.37;;;;;;;1.77;100.00;98815.94;5095093;28;20515;-69
2023/03/09 03:32:02;;;;;;;20.77;8.43;;;;;;;1.74;100.00;98817.31;5095109;28;20441;-67
2023/03/09 03:34:29;;;;;;;20.03;8.53;;;;;;;1.71;100.00;98815.22;5095133;28;20451;-67
2023/03/09 03:36:57;;;;;;;19.37;7.97;;;;;;;1.72;100.00;98822.13;5095029;28;20563;-67
2023/03/09 03:39:24;;;;;;;22.60;9.07;;;;;;;1.71;100.00;98814.44;5094823;28;20472;-67
2023/03/09 03:41:51;;;;;;;21.37;8.50;;;;;;;1.73;100.00;98815.75;5095178;28;20483;-68
2023/03/09 03:44:19;;;;;;;20.27;7.90;;;;;;;1.69;100.00;98813.94;5094942;28;20446;-68
2023/03/09 03:46:45;;;;;;;28.20;9.90;;;;;;;1.65;100.00;98810.25;5094915;28;20437;-67
2023/03/09 03:49:12;;;;;;;20.30;7.43;;;;;;;1.66;100.00;98812.63;5108618;22;20495;-70
2023/03/09 03:51:39;;;;;;;24.60;8.10;;;;;;;1.60;100.00;98813.78;5074728;28;20924;-70
2023/03/09 03:54:07;;;;;;;15.30;6.73;;;;;;;1.62;100.00;98798.25;5074598;28;20447;-70
2023/03/09 03:56:34;;;;;;;24.30;7.23;;;;;;;1.66;100.00;98809.16;5074474;28;20438;-69
2023/03/09 03:59:00;;;;;;;19.43;8.20;;;;;;;1.58;100.00;98801.78;5074443;28;20465;-69
2023/03/09 04:01:27;;;;;;;20.90;7.63;;;;;;;1.55;100.00;98797.84;5074446;28;20441;-69
2023/03/09 04:03:53;;;;;;;14.80;6.87;;;;;;;1.55;100.00;98791.69;5074442;28;20445;-69
2023/03/09 04:06:20;;;;;;;21.33;7.80;;;;;;;1.50;100.00;98803.22;5074294;28;20441;-70
2023/03/09 04:08:47;;;;;;;23.40;8.40;;;;;;;1.44;100.00;98799.81;5074205;28;20465;-69
2023/03/09 04:11:15;;;;;;;15.80;6.77;;;;;;;1.44;100.00;98799.81;5074335;28;20584;-68
2023/03/09 04:13:42;;;;;;;19.47;8.23;;;;;;;1.48;100.00;98792.03;5073893;28;20962;-70
2023/03/09 04:16:08;;;;;;;19.50;7.10;;;;;;;1.47;100.00;98793.91;5074156;28;20438;-69
2023/03/09 04:18:35;;;;;;;17.60;7.47;;;;;;;1.46;100.00;98788.84;5074167;28;20493;-69
2023/03/09 04:21:01;;;;;;;21.27;8.10;;;;;;;1.45;100.00;98795.28;5074028;28;20433;-69
2023/03/09 04:23:28;;;;;;;23.03;8.33;;;;;;;1.50;100.00;98805.88;5073625;28;20532;-65
2023/03/09 04:25:56;;;;;;;22.70;8.97;;;;;;;1.47;100.00;98807.25;5074073;28;20532;-66
2023/03/09 04:28:24;;;;;;;18.50;8.37;;;;;;;1.42;100.00;98806.53;5073687;28;21080;-71
2023/03/09 04:30:52;;;;;;;20.50;7.77;;;;;;;1.42;100.00;98803.84;5073938;28;20487;-69
2023/03/09 04:33:19;;;;;;;19.60;7.10;;;;;;;1.42;100.00;98803.84;5073479;28;20952;-70
2023/03/09 04:35:46;;;;;;;19.83;7.73;;;;;;;1.42;100.00;98807.31;5073685;28;20449;-70
2023/03/09 04:38:13;;;;;;;17.70;7.37;;;;;;;1.38;100.00;98808.19;5073605;28;20441;-70
2023/03/09 04:40:40;;;;;;;22.20;8.30;;;;;;;1.43;100.00;98803.56;5073403;28;20460;-69
2023/03/09 04:43:07;;;;;;;19.07;7.47;;;;;;;1.51;100.00;98805.59;5073663;28;20437;-69
2023/03/09 04:45:35;;;;;;;21.80;8.47;;;;;;;1.52;100.00;98809.06;5073744;28;20440;-70
2023/03/09 04:48:02;;;;;;;16.00;7.97;;;;;;;1.55;100.00;98805.00;5073518;28;20445;-70
2023/03/09 04:50:28;;;;;;;19.87;7.50;;;;;;;1.59;100.00;98817.50;5073612;28;20476;-69
2023/03/09 04:52:57;;;;;;;16.93;7.43;;;;;;;1.62;100.00;98818.81;5073584;28;20444;-69
2023/03/09 04:55:23;;;;;;;20.67;8.20;;;;;;;1.67;100.00;98819.53;5073527;28;20935;-70
2023/03/09 04:57:50;;;;;;;21.07;8.43;;;;;;;1.64;100.00;98827.31;5073521;28;20541;-69
2023/03/09 05:00:18;;;;;;;20.27;9.80;;;;;;;1.60;100.00;98832.44;5073351;28;20924;-69
2023/03/09 05:02:47;;;;;;;24.43;8.87;;;;;;;1.63;100.00;98831.88;5073240;28;20505;-70
2023/03/09 05:05:16;;;;;;;23.60;10.20;;;;;;;1.61;100.00;98839.38;5073471;28;20473;-70
2023/03/09 05:07:43;;;;;;;22.97;8.30;;;;;;;1.63;100.00;98831.88;5072838;28;20441;-71
2023/03/09 05:10:11;;;;;;;25.13;10.00;;;;;;;1.66;100.00;98835.84;5073274;28;20507;-70
2023/03/09 05:12:37;;;;;;;25.23;9.30;;;;;;;1.67;100.00;98840.09;5073287;28;20447;-70
2023/03/09 05:15:05;;;;;;;19.33;8.70;;;;;;;1.61;100.00;98843.91;5073329;28;20548;-71
2023/03/09 05:17:32;;;;;;;31.43;10.43;;;;;;;1.59;100.00;98848.72;5073464;28;20440;-70
2023/03/09 05:20:00;;;;;;;25.47;9.37;;;;;;;1.62;100.00;98846.28;5073215;28;20464;-70
2023/03/09 05:22:26;;;;;;;22.90;8.83;;;;;;;1.60;100.00;98848.47;5073340;28;20437;-70
2023/03/09 05:24:53;;;;;;;24.73;9.77;;;;;;;1.63;100.00;98853.22;5073354;28;20447;-70
2023/03/09 05:27:19;;;;;;;20.00;9.50;;;;;;;1.60;100.00;98850.34;5073354;28;20441;-70
2023/03/09 05:29:46;;;;;;;26.30;8.23;;;;;;;1.63;100.00;98850.53;5072996;28;20472;-70
2023/03/09 05:32:12;;;;;;;24.17;8.97;;;;;;;1.57;100.00;98849.03;5072903;28;20476;-69
2023/03/09 05:34:39;;;;;;;23.30;9.70;;;;;;;1.58;100.00;98847.16;5072912;28;20952;-70
2023/03/09 05:37:07;;;;;;;24.57;9.97;;;;;;;1.61;100.00;98859.94;5073247;28;20448;-70
2023/03/09 05:39:35;;;;;;;20.20;8.43;;;;;;;1.52;100.00;98849.09;5072950;28;20457;-71
2023/03/09 05:42:02;;;;;;;22.80;9.30;;;;;;;1.50;100.00;98861.91;5073306;28;20477;-69
2023/03/09 05:44:28;;;;;;;22.70;9.13;;;;;;;1.50;100.00;98860.03;5073160;28;20973;-68
2023/03/09 05:46:55;;;;;;;21.13;9.27;;;;;;;1.56;100.00;98854.66;5072967;28;20467;-68
2023/03/09 05:49:22;;;;;;;20.10;8.00;;;;;;;1.58;100.00;98855.16;5072612;28;20561;-69
2023/03/09 05:51:48;;;;;;;21.43;8.70;;;;;;;1.54;100.00;98864.78;5072507;28;20568;-68
2023/03/09 05:54:16;;;;;;;26.00;9.57;;;;;;;1.50;100.00;98865.34;5072610;28;20942;-68
2023/03/09 05:56:43;;;;;;;23.00;8.33;;;;;;;1.54;100.00;98880.81;5072641;28;20451;-68
2023/03/09 05:59:10;;;;;;;19.07;9.23;;;;;;;1.47;100.00;98894.50;5072969;28;20494;-69
2023/03/09 06:01:36;;;;;;;20.20;8.80;;;;;;;1.48;100.00;98898.75;5072610;28;20430;-68
2023/03/09 06:04:03;;;;;;;19.47;7.87;;;;;;;1.48;100.00;98896.06;5073017;28;20445;-68
2023/03/09 06:06:30;;;;;;;17.30;8.30;;;;;;;1.51;100.00;98900.84;5072537;28;20445;-67
2023/03/09 06:08:56;;;;;;;24.23;9.73;;;;;;;1.56;100.00;98900.00;5072419;28;21052;-66
2023/03/09 06:11:24;;;;;;;23.03;9.37;;;;;;;1.58;100.00;98903.97;5072774;28;20575;-67
2023/03/09 06:13:53;;;;;;;15.27;7.40;;;;;;;1.50;100.00;98908.03;5072803;28;20524;-67
2023/03/09 06:16:20;;;;;;;21.30;8.43;;;;;;;1.54;100.00;98916.28;5073210;28;20441;-67
2023/03/09 06:18:46;;;;;;;18.70;9.10;;;;;;;1.42;100.00;98919.34;5074283;28;20461;-67
2023/03/09 06:21:14;;;;;;;19.40;9.17;;;;;;;1.53;100.00;98914.69;5076610;28;20447;-67
2023/03/09 06:23:41;;;;;;;15.57;7.27;;;;;;;1.54;100.00;98920.81;5076890;28;20447;-67
2023/03/09 06:26:11;;;;;;;26.97;8.87;;;;;;;1.55;100.00;98907.22;5075956;28;20441;-67
2023/03/09 06:28:39;;;;;;;21.90;8.43;;;;;;;1.56;100.00;98916.03;5076527;28;20457;-66
2023/03/09 06:31:07;;;;;;;17.20;8.10;;;;;;;1.55;100.00;98936.56;5075988;28;20481;-67
2023/03/09 06:33:34;;;;;;;19.00;8.77;;;;;;;1.55;100.00;98935.75;5076248;28;20448;-67
2023/03/09 06:36:01;;;;;;;16.30;8.10;;;;;;;1.58;100.00;98943.19;5076109;28;20820;-67
2023/03/09 06:38:28;;;;;;;19.97;8.23;;;;;;;1.66;100.00;98942.59;5075668;28;20526;-67
2023/03/09 06:40:55;;;;;;;21.03;9.17;;;;;;;1.68;100.00;98943.91;5076005;28;20472;-67
2023/03/09 06:43:21;;;;;;;25.67;7.80;;;;;;;1.72;100.00;98946.78;5075817;28;20437;-68
2023/03/09 06:45:50;;;;;;;23.63;9.93;;;;;;;1.70;100.00;98946.28;5076115;28;20453;-68
2023/03/09 06:48:16;;;;;;;21.83;9.53;;;;;;;1.77;100.00;98955.56;5075747;28;20552;-68
2023/03/09 06:50:44;;;;;;;20.17;8.67;;;;;;;1.75;100.00;98951.56;5075624;28;20469;-68
2023/03/09 06:53:10;;;;;;;17.80;8.30;;;;;;;1.72;100.00;98962.78;5075942;28;20441;-68
2023/03/09 06:55:38;;;;;;;22.00;8.00;;;;;;;1.81;100.00;98977.09;5075544;28;20441;-68
2023/03/09 06:58:04;;;;;;;21.40;8.17;;;;;;;1.82;100.00;98986.72;5075589;28;20453;-67
2023/03/09 07:00:31;;;;;;;20.90;8.03;;;;;;;1.77;100.00;98990.25;5075610;28;20816;-65
2023/03/09 07:02:59;;;;;;;20.77;8.43;;;;;;;1.76;100.00;99001.19;5075805;28;20441;-68
2023/03/09 07:05:27;;;;;;;19.07;7.30;;;;;;;1.74;100.00;98998.81;5075765;28;20457;-69
2023/03/09 07:07:53;;;;;;;25.20;8.63;;;;;;;1.71;100.00;99004.69;5075607;28;20511;-71
2023/03/09 07:10:20;;;;;;;17.80;7.13;;;;;;;1.73;100.00;99007.09;5075489;28;20552;-69
2023/03/09 07:12:48;;;;;;;19.63;9.13;;;;;;;1.79;100.00;99010.53;5075604;28;20444;-68
2023/03/09 07:15:15;;;;;;;16.97;8.50;;;;;;;1.71;100.00;99010.03;5075484;28;20441;-68
2023/03/09 07:17:42;;;;;;;20.50;7.37;;;;;;;1.76;100.00;99014.53;5075389;28;20449;-69
2023/03/09 07:20:11;;;;;;;17.77;8.10;;;;;;;1.74;100.00;99027.38;5075426;28;20465;-69
2023/03/09 07:22:38;;;;;;;19.07;8.07;;;;;;;1.83;100.00;99027.56;5075096;28;20537;-70
2023/03/09 07:25:06;;;;;;;17.63;7.87;;;;;;;1.83;100.00;99031.03;5075054;28;20931;-71
2023/03/09 07:27:33;;;;;;;16.87;7.30;;;;;;;1.77;100.00;99024.94;5075275;28;20495;-71
2023/03/09 07:29:59;;;;;;;20.90;8.70;;;;;;;1.81;100.00;99041.16;5074226;28;21033;-69
2023/03/09 07:32:26;;;;;;;22.07;9.17;;;;;;;1.85;100.00;99041.41;5075123;28;20572;-70
2023/03/09 07:34:53;;;;;;;20.40;8.00;;;;;;;1.91;100.00;99053.66;5075204;28;20448;-72
2023/03/09 07:37:21;;;;;;;19.50;7.80;;;;;;;1.94;100.00;99055.75;5074772;28;20441;-70
2023/03/09 07:39:47;;;;;;;15.83;7.40;;;;;;;2.02;100.00;99057.81;5075039;28;20461;-70
2023/03/09 07:42:14;;;;;;;17.53;8.17;;;;;;;2.04;100.00;99061.00;5075031;28;20528;-69
2023/03/09 07:44:40;;;;;;;16.93;7.40;;;;;;;2.12;100.00;99063.03;5074590;28;20524;-69
2023/03/09 07:47:07;;;;;;;14.87;7.47;;;;;;;2.18;100.00;99056.56;5074901;28;20480;-69
2023/03/09 07:49:33;;;;;;;19.70;8.57;;;;;;;2.24;100.00;99063.44;5074273;28;20511;-69
2023/03/09 07:52:02;;;;;;;20.33;8.40;;;;;;;2.27;100.00;99070.91;5074736;28;20489;-69
2023/03/09 07:54:30;;;;;;;22.17;8.37;;;;;;;2.32;100.00;99082.63;5074752;28;20455;-65
2023/03/09 07:56:56;;;;;;;18.43;6.83;;;;;;;2.41;100.00;99086.25;5074304;28;20445;-65
2023/03/09 07:59:23;;;;;;;19.47;8.23;;;;;;;2.43;100.00;99094.75;5074452;28;20467;-65
2023/03/09 08:01:49;;;;;;;20.53;8.23;;;;;;;2.44;100.00;99093.72;5074508;28;20472;-65
2023/03/09 08:04:16;;;;;;;15.23;6.97;;;;;;;2.41;100.00;99102.28;5074103;28;20456;-65
2023/03/09 08:06:44;;;;;;;16.07;7.60;;;;;;;2.37;100.00;99111.94;5074362;28;20453;-65
2023/03/09 08:09:14;;;;;;;19.80;9.17;;;;;;;2.34;100.00;99113.28;5073788;28;20473;-65
2023/03/09 08:11:43;;;;;;;12.37;6.23;;;;;;;2.36;100.00;99100.47;5074305;28;20834;-65
2023/03/09 08:14:10;;;;;;;13.63;6.87;;;;;;;2.38;100.00;99098.28;5074274;28;20496;-65
2023/03/09 08:16:37;;;;;;;19.00;7.43;;;;;;;2.37;100.00;99104.72;5074132;28;20620;-65
2023/03/09 08:19:03;;;;;;;20.97;8.27;;;;;;;2.38;100.00;99124.22;5073713;28;20495;-65
2023/03/09 08:21:30;;;;;;;18.00;8.50;;;;;;;2.35;100.00;99130.94;5073670;28;20448;-66
2023/03/09 08:23:59;;;;;;;16.00;7.80;;;;;;;2.31;100.00;99127.25;5074094;28;20528;-66
2023/03/09 08:26:25;;;;;;;13.10;6.63;;;;;;;2.34;100.00;99123.97;5073732;28;20852;-66
2023/03/09 08:28:53;;;;;;;15.67;6.37;;;;;;;2.30;100.00;99130.16;5073929;28;20460;-66
2023/03/09 08:31:21;;;;;;;24.33;8.77;;;;;;;2.37;100.00;99133.31;5073772;28;20477;-65
2023/03/09 08:33:47;;;;;;;17.17;8.30;;;;;;;2.45;100.00;99135.38;5073870;28;20471;-66
2023/03/09 08:36:16;;;;;;;16.90;8.10;;;;;;;2.36;100.00;99137.88;5073901;28;20895;-66
2023/03/09 08:38:45;;;;;;;16.80;7.30;;;;;;;2.43;100.00;99138.31;5073681;28;20464;-65
2023/03/09 08:41:12;;;;;;;15.93;7.87;;;;;;;2.49;100.00;99141.75;5073025;28;20445;-66
2023/03/09 08:43:39;;;;;;;20.10;7.47;;;;;;;2.30;100.00;99154.22;5072905;28;20469;-65
2023/03/09 08:46:07;;;;;;;18.00;8.57;;;;;;;2.27;100.00;99156.38;5073696;28;20437;-67
2023/03/09 08:48:34;;;;;;;22.40;8.90;;;;;;;2.34;100.00;99150.69;5073059;28;20481;-65
2023/03/09 08:51:01;;;;;;;17.70;7.40;;;;;;;2.38;100.00;99153.59;5073599;28;20521;-66
2023/03/09 08:53:27;;;;;;;18.87;8.53;;;;;;;2.38;100.00;99162.41;5073586;28;20467;-65
2023/03/09 08:55:54;;;;;;;22.90;9.10;;;;;;;2.45;100.00;99162.91;5073206;28;20444;-65
2023/03/09 08:58:21;;;;;;;15.40;7.23;;;;;;;2.48;100.00;99169.56;5073393;28;20497;-65
2023/03/09 09:00:47;;;;;;;19.40;8.93;;;;;;;2.45;100.00;99170.91;5073224;28;20475;-65
2023/03/09 09:03:16;;;;;;;23.63;8.00;;;;;;;2.52;100.00;99175.91;5073270;28;20445;-67
2023/03/09 09:05:42;;;;;;;19.60;9.07;;;;;;;2.54;100.00;99176.44;5073080;28;20452;-67
2023/03/09 09:08:09;;;;;;;23.37;9.17;;;;;;;2.55;100.00;99188.72;5073382;28;20552;-70
2023/03/09 09:10:39;;;;;;;26.47;8.70;;;;;;;2.60;100.00;99190.53;5073295;28;20477;-65
2023/03/09 09:13:06;;;;;;;18.63;9.03;;;;;;;2.60;100.00;99191.34;5073476;28;20533;-66
2023/03/09 09:15:33;;;;;;;20.60;9.50;;;;;;;2.65;100.00;99203.84;5072864;28;20451;-66
2023/03/09 09:18:00;;;;;;;22.17;9.90;;;;;;;2.66;100.00;99200.13;5073134;28;20566;-67
2023/03/09 09:20:28;;;;;;;20.27;10.87;;;;;;;2.54;100.00;99197.81;5073300;28;20476;-67
2023/03/09 09:22:54;;;;;;;20.70;9.00;;;;;;;2.59;100.00;99205.78;5073170;28;20445;-67
2023/03/09 09:25:21;;;;;;;20.83;10.23;;;;;;;2.59;100.00;99210.34;5073239;28;20441;-65
2023/03/09 09:27:51;;;;;;;23.80;9.37;;;;;;;2.62;100.00;99221.25;5073099;28;20449;-65
2023/03/09 09:30:18;;;;;;;15.13;8.13;;;;;;;2.70;100.00;99222.50;5072705;28;20552;-64
2023/03/09 09:32:45;;;;;;;26.57;10.43;;;;;;;2.66;100.00;99219.63;5072579;28;20966;-65
2023/03/09 09:35:12;;;;;;;22.20;9.60;;;;;;;2.68;100.00;99228.16;5072546;28;20445;-65
2023/03/09 09:37:41;;;;;;;23.83;11.03;;;;;;;2.71;100.00;99224.13;5073131;28;20467;-68
2023/03/09 09:40:11;;;;;;;20.90;9.47;;;;;;;2.64;100.00;99224.44;5072711;28;20457;-67
2023/03/09 09:42:40;;;;;;;19.63;9.33;;;;;;;2.62;100.00;99228.50;5072324;28;20442;-68
2023/03/09 09:45:24;;;;;;;20.40;10.00;;;;;;;2.69;100.00;99236.97;5072678;28;20468;-64
2023/03/09 09:47:53;;;;;;;27.17;10.60;;;;;;;2.64;100.00;99237.00;5072268;28;20523;-66
2023/03/09 09:50:22;;;;;;;20.00;10.03;;;;;;;2.67;100.00;99233.78;5072152;28;20473;-64
2023/03/09 09:52:57;;;;;;;22.03;9.93;;;;;;;2.65;100.00;99238.59;5072418;28;20483;-63
2023/03/09 09:55:27;;;;;;;21.87;11.13;;;;;;;2.70;100.00;99238.53;5076657;28;20432;-64
2023/03/09 09:58:02;;;;;;;19.80;9.53;;;;;;;2.76;100.00;99240.09;5076989;28;20457;-64
2023/03/09 10:00:34;;;;;;;23.43;10.67;;;;;;;2.70;100.00;99250.06;5076823;28;20459;-64
2023/03/09 10:03:18;;;;;;;22.17;10.13;;;;;;;2.68;100.00;99252.19;5076966;28;20457;-64
2023/03/09 10:05:49;;;;;;;19.40;9.20;;;;;;;2.63;100.00;99249.59;5076857;28;20579;-64
2023/03/09 10:08:26;;;;;;;25.30;11.60;;;;;;;2.69;100.00;99248.44;5076970;28;20469;-64
2023/03/09 10:10:53;;;;;;;25.53;11.50;;;;;;;2.71;100.00;99242.84;5076989;28;20422;-64
2023/03/09 10:13:29;;;;;;;21.50;10.20;;;;;;;2.73;100.00;99238.78;5076614;28;20567;-64
2023/03/09 10:15:57;;;;;;;21.07;10.13;;;;;;;2.82;100.00;99240.84;5076643;28;20433;-64
2023/03/09 10:18:31;;;;;;;21.73;10.30;;;;;;;2.82;100.00;99247.00;5076943;28;20460;-64
2023/03/09 10:20:58;;;;;;;22.60;10.80;;;;;;;2.84;100.00;99268.91;5076785;28;20504;-64
2023/03/09 10:23:30;;;;;;;27.13;10.63;;;;;;;2.82;99.92;99262.22;5076716;28;20437;-65
2023/03/09 10:26:03;;;;;;;22.03;10.20;;;;;;;2.86;99.71;99274.75;5076576;28;20902;-64
2023/03/09 10:28:35;;;;;;;24.87;10.17;;;;;;;2.90;100.00;99272.31;5076709;28;20487;-63
2023/03/09 10:31:06;;;;;;;19.80;9.63;;;;;;;2.90;99.73;99280.34;5076102;28;20918;-64
2023/03/09 10:33:41;;;;;;;23.23;11.00;;;;;;;2.84;99.35;99292.19;5076200;28;20465;-65
2023/03/09 10:36:12;;;;;;;19.40;9.70;;;;;;;2.85;99.17;99309.81;5076151;28;20421;-65
2023/03/09 10:38:41;;;;;;;21.80;9.50;;;;;;;2.68;99.11;99304.88;5076134;28;20854;-64
2023/03/09 10:41:16;;;;;;;25.00;11.07;;;;;;;2.66;99.40;99304.38;5076152;28;20536;-65
2023/03/09 10:43:42;;;;;;;25.70;10.30;;;;;;;2.64;99.27;99293.94;5076229;28;20479;-64
2023/03/09 10:46:14;;;;;;;26.97;11.03;;;;;;;2.56;99.86;99297.22;5075997;28;20445;-65
2023/03/09 10:48:41;;;;;;;24.07;10.87;;;;;;;2.59;100.00;99301.22;5075623;28;20480;-65
2023/03/09 10:51:22;;;;;;;25.73;10.47;;;;;;;2.64;99.75;99307.31;5076035;28;20441;-65
2023/03/09 10:53:52;;;;;;;23.67;10.23;;;;;;;2.65;99.69;99310.75;5075873;28;20544;-65
2023/03/09 10:56:21;;;;;;;21.37;9.77;;;;;;;2.72;99.40;99312.06;5075889;28;20441;-66
2023/03/09 10:59:07;;;;;;;22.57;11.33;;;;;;;2.77;99.53;99309.31;5075390;28;20454;-63
2023/03/09 11:01:35;;;;;;;23.53;11.70;;;;;;;2.84;100.00;99316.25;5075669;28;20425;-65
2023/03/09 11:04:02;;;;;;;20.73;9.90;;;;;;;2.80;100.00;99320.56;5075670;28;20528;-64
2023/03/09 11:06:32;;;;;;;19.53;10.33;;;;;;;2.78;100.00;99337.66;5074597;28;20469;-64
2023/03/09 11:09:07;;;;;;;25.27;11.13;;;;;;;2.76;99.94;99325.66;5075111;28;21037;-64
2023/03/09 11:11:34;;;;;;;20.70;10.30;;;;;;;2.74;100.00;99333.16;5075332;28;20417;-64
2023/03/09 11:14:01;;;;;;;23.60;10.60;;;;;;;2.67;99.48;99336.16;5075077;28;20970;-64
2023/03/09 11:16:34;;;;;;;28.43;11.50;;;;;;;2.60;100.00;99338.34;5075148;28;20880;-64
2023/03/09 11:19:06;;;;;;;28.40;12.03;;;;;;;2.64;99.76;99341.25;5074743;28;20990;-64
2023/03/09 11:21:33;;;;;;;28.83;11.33;;;;;;;2.65;99.93;99343.63;5075354;28;20458;-64
2023/03/09 11:24:03;;;;;;;26.97;11.90;;;;;;;2.71;100.00;99341.75;5075031;28;20529;-64
2023/03/09 11:26:34;;;;;;;26.20;11.00;;;;;;;2.68;100.00;99348.44;5074907;28;20800;-64
2023/03/09 11:29:13;;;;;;;23.20;11.40;;;;;;;2.73;100.00;99345.72;5074943;28;20537;-65